Time;durP1;ratioP1;P1;durP2;ratioP2;P2;SDS_P1;SDS_P2;PMS_P1;PMS_P2;Temp;Humidity;BMP_temperature;BMP_pressure;BME280_temperature;BME280_humidity;BME280_pressure;Samples;Min_cycle;Max_cycle;Signal;HPM_P1;HPM_P2
2021/03/11 00:00:26;;;;;;;29.10;19.60;;;7.20;99.90;;;;;;6126798;23;20458;-80
2021/03/11 00:02:52;;;;;;;31.47;21.90;;;7.10;99.90;;;;;;6136442;23;20434;-80
2021/03/11 00:05:20;;;;;;;33.03;19.10;;;7.30;99.90;;;;;;6126846;23;20469;-80
2021/03/11 00:07:46;;;;;;;23.27;13.17;;;7.20;99.90;;;;;;6125540;23;20517;-80
2021/03/11 00:10:13;;;;;;;29.07;16.97;;;7.40;99.90;;;;;;6126368;23;20403;-80
2021/03/11 00:12:42;;;;;;;28.57;16.70;;;7.30;99.90;;;;;;6126907;23;20441;-80
2021/03/11 00:15:11;;;;;;;33.23;19.67;;;7.30;99.90;;;;;;6125950;23;20887;-80
2021/03/11 00:17:37;;;;;;;28.87;15.53;;;7.50;99.90;;;;;;6126516;23;20818;-80
2021/03/11 00:20:07;;;;;;;30.33;15.30;;;7.50;99.90;;;;;;6126502;23;20926;-80
2021/03/11 00:22:33;;;;;;;29.77;15.10;;;7.60;99.90;;;;;;6125403;23;20410;-80
2021/03/11 00:25:00;;;;;;;26.10;13.07;;;7.70;99.90;;;;;;6126597;23;20542;-80
2021/03/11 00:27:26;;;;;;;27.90;14.60;;;7.70;99.90;;;;;;6126297;23;20916;-79
2021/03/11 00:29:53;;;;;;;25.23;13.10;;;7.80;99.90;;;;;;6126548;23;20768;-80
2021/03/11 00:32:20;;;;;;;22.40;10.50;;;7.80;99.90;;;;;;6126591;23;20422;-80
2021/03/11 00:34:46;;;;;;;24.53;11.07;;;7.80;99.90;;;;;;6126295;23;20430;-80
2021/03/11 00:37:12;;;;;;;24.37;13.83;;;7.90;99.90;;;;;;6125318;23;20398;-80
2021/03/11 00:39:39;;;;;;;28.00;12.77;;;7.80;99.90;;;;;;6126549;23;20444;-80
2021/03/11 00:42:05;;;;;;;24.43;11.17;;;7.90;99.90;;;;;;6126774;23;20407;-80
2021/03/11 00:44:33;;;;;;;19.53;11.27;;;7.90;99.90;;;;;;6126383;23;20435;-80
2021/03/11 00:47:01;;;;;;;24.30;13.57;;;7.90;99.90;;;;;;6126495;23;20442;-80
2021/03/11 00:49:27;;;;;;;26.10;12.77;;;7.80;99.90;;;;;;6126473;23;20446;-80
2021/03/11 00:51:53;;;;;;;23.50;11.90;;;7.80;99.90;;;;;;6124988;23;20404;-80
2021/03/11 00:54:20;;;;;;;21.73;9.97;;;7.80;99.90;;;;;;6136121;23;20489;-80
2021/03/11 00:56:46;;;;;;;25.27;12.93;;;7.80;99.90;;;;;;6136206;23;20514;-80
2021/03/11 00:59:12;;;;;;;26.60;12.57;;;7.80;99.90;;;;;;6125983;23;20441;-80
2021/03/11 01:01:39;;;;;;;26.80;11.73;;;7.80;99.90;;;;;;6135608;23;20789;-81
2021/03/11 01:04:06;;;;;;;23.57;13.07;;;7.90;99.90;;;;;;6126192;23;20494;-80
2021/03/11 01:06:33;;;;;;;26.43;12.83;;;7.90;99.90;;;;;;6124902;23;20410;-80
2021/03/11 01:08:59;;;;;;;27.10;13.27;;;7.90;99.90;;;;;;6125749;23;20443;-81
2021/03/11 01:11:26;;;;;;;29.17;11.93;;;7.80;99.90;;;;;;6136183;23;20501;-81
2021/03/11 01:13:52;;;;;;;25.33;14.13;;;7.80;99.90;;;;;;6126320;23;20439;-80
2021/03/11 01:16:19;;;;;;;26.00;13.13;;;7.80;99.90;;;;;;6126001;23;20903;-81
2021/03/11 01:18:45;;;;;;;26.70;12.90;;;7.80;99.90;;;;;;6135659;23;20749;-81
2021/03/11 01:21:12;;;;;;;21.40;10.50;;;7.80;99.90;;;;;;6126314;23;20435;-80
2021/03/11 01:23:39;;;;;;;16.77;7.67;;;7.80;99.90;;;;;;6124685;23;20403;-80
2021/03/11 01:26:05;;;;;;;22.13;8.50;;;7.90;99.90;;;;;;6125997;23;20443;-81
2021/03/11 01:28:31;;;;;;;21.27;9.97;;;8.10;99.90;;;;;;6135625;23;20414;-80
2021/03/11 01:30:58;;;;;;;19.20;10.50;;;8.00;99.90;;;;;;6125715;23;20403;-81
2021/03/11 01:33:24;;;;;;;19.70;8.60;;;8.00;99.90;;;;;;6126383;23;20403;-81
2021/03/11 01:35:51;;;;;;;20.67;10.10;;;8.00;99.90;;;;;;6136032;23;20439;-81
2021/03/11 01:38:18;;;;;;;16.60;9.20;;;8.00;99.90;;;;;;6124610;23;20434;-81
2021/03/11 01:40:45;;;;;;;16.67;7.30;;;7.90;99.90;;;;;;6125938;23;20403;-80
2021/03/11 01:43:11;;;;;;;15.27;7.60;;;7.90;99.90;;;;;;6126087;23;20407;-81
2021/03/11 01:45:38;;;;;;;17.80;8.20;;;8.00;99.90;;;;;;6135856;23;20438;-81
2021/03/11 01:48:05;;;;;;;15.27;5.80;;;8.10;99.90;;;;;;6125917;23;20434;-81
2021/03/11 01:50:32;;;;;;;16.73;7.53;;;8.10;99.90;;;;;;6125903;23;20407;-81
2021/03/11 01:52:59;;;;;;;12.90;5.70;;;8.10;99.90;;;;;;6124670;23;20407;-81
2021/03/11 01:55:27;;;;;;;15.27;6.00;;;8.10;99.90;;;;;;6125853;23;20467;-81
2021/03/11 01:57:53;;;;;;;15.20;5.77;;;8.20;99.90;;;;;;6125968;23;20449;-81
2021/03/11 02:00:20;;;;;;;12.60;4.87;;;8.20;99.90;;;;;;6126097;23;20403;-81
2021/03/11 02:02:46;;;;;;;16.23;4.20;;;8.10;99.90;;;;;;6126126;23;20431;-81
2021/03/11 02:05:16;;;;;;;13.10;4.93;;;8.10;99.90;;;;;;6135688;23;20745;-81
2021/03/11 02:07:42;;;;;;;12.27;5.30;;;8.20;99.90;;;;;;6124672;23;20399;-82
2021/03/11 02:10:11;;;;;;;10.87;4.67;;;8.20;99.90;;;;;;6125639;23;20444;-82
2021/03/11 02:12:46;;;;;;;14.50;5.10;;;8.30;99.90;;;;;;6135905;23;20506;-81
2021/03/11 02:15:19;;;;;;;13.17;5.10;;;8.30;99.90;;;;;;6137767;23;20497;-82
2021/03/11 02:17:52;;;;;;;11.43;4.33;;;8.40;99.90;;;;;;6127855;23;20484;-82
2021/03/11 02:20:54;;;;;;;13.43;4.27;;;8.40;99.90;;;;;;6127802;23;20782;-81
2021/03/11 02:24:07;;;;;;;12.40;4.30;;;8.30;99.90;;;;;;6125446;23;20446;-81
2021/03/11 02:26:49;;;;;;;11.40;4.77;;;8.40;99.90;;;;;;6127782;23;20446;-82
2021/03/11 02:29:20;;;;;;;11.70;4.70;;;8.40;99.90;;;;;;6127663;23;20798;-81
2021/03/11 02:31:48;;;;;;;11.10;3.90;;;8.40;99.90;;;;;;6137281;23;20800;-82
2021/03/11 02:34:17;;;;;;;11.53;4.50;;;8.30;99.90;;;;;;6127715;23;20410;-82
2021/03/11 02:36:45;;;;;;;11.93;4.10;;;8.50;99.90;;;;;;6126202;23;20399;-82
2021/03/11 02:39:16;;;;;;;12.37;5.80;;;8.40;99.90;;;;;;6127507;23;20541;-81
2021/03/11 02:41:43;;;;;;;10.20;3.90;;;8.40;99.90;;;;;;6127286;23;20887;-82
2021/03/11 02:44:11;;;;;;;13.00;4.23;;;8.40;99.90;;;;;;6127414;23;20403;-80
2021/03/11 02:46:41;;;;;;;12.37;5.20;;;8.30;99.90;;;;;;6127791;23;20721;-82
2021/03/11 02:49:07;;;;;;;12.80;4.23;;;8.40;99.90;;;;;;6127492;23;20445;-82
2021/03/11 02:51:34;;;;;;;12.80;4.70;;;8.40;99.90;;;;;;6135702;23;20422;-81
2021/03/11 02:54:01;;;;;;;10.70;3.83;;;8.50;99.90;;;;;;6127375;23;20399;-81
2021/03/11 02:56:30;;;;;;;11.30;3.73;;;8.40;99.90;;;;;;6127533;23;20394;-82
2021/03/11 02:58:59;;;;;;;11.00;4.17;;;8.40;99.90;;;;;;6127446;23;20446;-81
2021/03/11 03:01:26;;;;;;;10.97;4.07;;;8.50;99.90;;;;;;6127079;23;20442;-81
2021/03/11 03:03:54;;;;;;;10.33;3.77;;;8.40;99.90;;;;;;6127128;23;20435;-81
2021/03/11 03:06:21;;;;;;;10.60;4.20;;;8.40;99.90;;;;;;6126768;23;20402;-80
2021/03/11 03:08:49;;;;;;;11.87;4.10;;;8.50;99.90;;;;;;6126742;23;20450;-81
2021/03/11 03:11:17;;;;;;;10.60;4.43;;;8.40;99.90;;;;;;6127312;23;20418;-81
2021/03/11 03:13:47;;;;;;;11.90;3.90;;;8.50;99.90;;;;;;6127308;23;20395;-82
2021/03/11 03:16:13;;;;;;;11.80;5.20;;;8.30;99.90;;;;;;6127438;23;20403;-82
2021/03/11 03:18:40;;;;;;;10.73;3.93;;;8.40;99.90;;;;;;6126733;23;21012;-82
2021/03/11 03:21:16;;;;;;;11.87;4.17;;;8.40;99.90;;;;;;6126979;23;20428;-82
2021/03/11 03:23:44;;;;;;;10.53;3.50;;;8.40;99.90;;;;;;6125334;23;20406;-81
2021/03/11 03:26:10;;;;;;;12.13;4.83;;;8.30;99.90;;;;;;6126653;23;20467;-82
2021/03/11 03:28:38;;;;;;;10.07;3.83;;;8.40;99.90;;;;;;6127155;23;20410;-81
2021/03/11 03:31:05;;;;;;;9.87;3.70;;;8.30;99.90;;;;;;6126979;23;20441;-82
2021/03/11 03:33:32;;;;;;;10.03;3.67;;;8.40;99.90;;;;;;6136613;23;20729;-81
2021/03/11 03:35:59;;;;;;;8.70;3.30;;;8.30;99.90;;;;;;6126859;23;20403;-81
2021/03/11 03:38:26;;;;;;;12.47;4.27;;;8.30;99.90;;;;;;6125437;23;20753;-77
2021/03/11 03:40:53;;;;;;;8.90;3.03;;;8.30;99.90;;;;;;6126706;23;20431;-82
2021/03/11 03:43:24;;;;;;;14.23;5.03;;;8.20;99.90;;;;;;6126798;23;20486;-81
2021/03/11 03:45:56;;;;;;;11.73;4.60;;;8.30;99.90;;;;;;6126660;23;20437;-81
2021/03/11 03:48:28;;;;;;;14.03;5.50;;;8.40;99.90;;;;;;6127008;23;20840;-81
2021/03/11 03:50:55;;;;;;;11.93;5.23;;;8.40;99.90;;;;;;6126536;23;20458;-81
2021/03/11 03:53:25;;;;;;;14.97;4.27;;;8.50;99.90;;;;;;6125391;23;20403;-81
2021/03/11 03:55:59;;;;;;;9.20;3.53;;;8.60;99.90;;;;;;6127077;23;20489;-82
2021/03/11 03:58:27;;;;;;;9.67;3.33;;;8.50;99.90;;;;;;6126877;23;20435;-81
2021/03/11 04:00:55;;;;;;;12.07;5.53;;;8.40;99.90;;;;;;6136639;23;20419;-83
2021/03/11 04:03:23;;;;;;;14.83;5.13;;;8.50;99.90;;;;;;6127014;23;20403;-81
2021/03/11 04:05:50;;;;;;;17.57;7.70;;;8.40;99.90;;;;;;6126559;23;20435;-82
2021/03/11 04:08:18;;;;;;;12.00;4.47;;;8.50;99.90;;;;;;6134667;23;20430;-82
2021/03/11 04:10:45;;;;;;;10.63;4.03;;;8.40;99.90;;;;;;6136853;23;20434;-82
2021/03/11 04:13:13;;;;;;;12.50;6.77;;;8.50;99.90;;;;;;6126526;23;20431;-82
2021/03/11 04:15:41;;;;;;;10.83;4.93;;;8.60;99.90;;;;;;6126734;23;20407;-82
2021/03/11 04:18:08;;;;;;;11.57;4.50;;;8.60;99.90;;;;;;6136275;23;20430;-82
2021/03/11 04:20:37;;;;;;;10.17;4.00;;;8.60;99.90;;;;;;6126682;23;20406;-81
2021/03/11 04:23:03;;;;;;;10.50;5.20;;;8.60;99.90;;;;;;6125032;23;20399;-82
2021/03/11 04:25:30;;;;;;;12.43;5.40;;;8.60;99.90;;;;;;6135806;23;20946;-81
2021/03/11 04:27:57;;;;;;;10.30;4.93;;;8.60;99.90;;;;;;6136381;23;20411;-81
2021/03/11 04:30:25;;;;;;;13.20;4.40;;;8.60;99.90;;;;;;6136472;23;20411;-82
2021/03/11 04:32:52;;;;;;;10.13;5.70;;;8.70;99.90;;;;;;6126668;23;20414;-81
2021/03/11 04:35:19;;;;;;;12.50;4.73;;;8.80;99.90;;;;;;6126572;23;20403;-82
2021/03/11 04:37:45;;;;;;;12.17;4.30;;;8.80;99.90;;;;;;6134861;23;20407;-82
2021/03/11 04:40:12;;;;;;;15.80;6.63;;;8.80;99.90;;;;;;6126174;23;20442;-81
2021/03/11 04:42:40;;;;;;;11.80;5.03;;;8.80;99.90;;;;;;6136245;23;20510;-82
2021/03/11 04:45:08;;;;;;;11.03;4.30;;;8.70;99.90;;;;;;6126429;23;20407;-82
2021/03/11 04:47:37;;;;;;;14.00;6.77;;;8.80;99.90;;;;;;6126227;23;20411;-82
2021/03/11 04:50:05;;;;;;;10.80;3.90;;;8.80;99.90;;;;;;6126068;23;20899;-82
2021/03/11 04:52:35;;;;;;;13.43;5.10;;;8.80;99.90;;;;;;6125190;23;20439;-82
2021/03/11 04:55:03;;;;;;;14.10;6.00;;;8.80;99.90;;;;;;6135788;23;20439;-82
2021/03/11 04:57:29;;;;;;;12.60;4.60;;;8.80;99.90;;;;;;6126247;23;20435;-80
2021/03/11 05:00:00;;;;;;;10.50;4.23;;;8.90;99.90;;;;;;6126326;23;20463;-82
2021/03/11 05:02:30;;;;;;;12.50;3.93;;;8.90;99.90;;;;;;6136279;23;20414;-82
2021/03/11 05:04:59;;;;;;;12.30;4.17;;;8.90;99.90;;;;;;6126327;23;20426;-82
2021/03/11 05:07:26;;;;;;;10.83;4.20;;;9.00;99.90;;;;;;6124857;23;20406;-81
2021/03/11 05:09:52;;;;;;;11.33;3.90;;;9.00;99.90;;;;;;6125924;23;20974;-81
2021/03/11 05:12:19;;;;;;;10.17;3.53;;;9.10;99.90;;;;;;6135816;23;20414;-82
2021/03/11 05:14:45;;;;;;;12.97;5.17;;;9.00;99.90;;;;;;6125951;23;20478;-81
2021/03/11 05:17:12;;;;;;;11.27;4.17;;;9.10;99.90;;;;;;6135976;23;20518;-82
2021/03/11 05:19:38;;;;;;;9.50;2.80;;;9.00;99.90;;;;;;6125656;23;20521;-81
2021/03/11 05:22:05;;;;;;;11.23;4.13;;;9.10;99.90;;;;;;6124342;23;20946;-81
2021/03/11 05:24:32;;;;;;;9.80;3.73;;;9.10;99.90;;;;;;6126147;23;20542;-80
2021/03/11 05:26:58;;;;;;;11.33;4.97;;;9.00;99.90;;;;;;6135610;23;20410;-79
2021/03/11 05:29:24;;;;;;;12.60;5.43;;;9.10;99.90;;;;;;6125977;23;20518;-80
2021/03/11 05:31:51;;;;;;;13.47;7.10;;;9.10;99.90;;;;;;6126186;23;20438;-82
2021/03/11 05:34:17;;;;;;;17.27;13.63;;;9.00;99.90;;;;;;6126124;23;20410;-81
2021/03/11 05:36:43;;;;;;;13.37;7.80;;;9.10;99.90;;;;;;6124780;23;20509;-80
2021/03/11 05:39:11;;;;;;;10.80;6.37;;;9.00;99.90;;;;;;6125949;23;20473;-79
2021/03/11 05:41:41;;;;;;;13.70;9.03;;;9.10;99.90;;;;;;6126136;23;20522;-79
2021/03/11 05:44:08;;;;;;;15.17;10.87;;;9.10;99.90;;;;;;6126239;23;20407;-80
2021/03/11 05:46:39;;;;;;;15.97;13.33;;;9.10;99.90;;;;;;6126296;23;20453;-81
2021/03/11 05:49:05;;;;;;;16.37;11.17;;;9.20;99.90;;;;;;6127797;23;20407;-80
2021/03/11 05:51:32;;;;;;;17.37;10.90;;;9.20;99.90;;;;;;6126650;23;20402;-80
2021/03/11 05:54:00;;;;;;;18.30;12.60;;;9.30;99.90;;;;;;6127528;23;20467;-80
2021/03/11 05:56:27;;;;;;;18.20;10.63;;;9.30;99.90;;;;;;6137541;23;20498;-81
2021/03/11 05:58:55;;;;;;;17.00;11.80;;;9.20;99.90;;;;;;6128101;23;20466;-80
2021/03/11 06:01:23;;;;;;;11.90;7.90;;;9.30;99.90;;;;;;6127963;23;20403;-81
2021/03/11 06:03:52;;;;;;;14.33;9.60;;;9.30;99.90;;;;;;6127736;23;20403;-79
2021/03/11 06:06:21;;;;;;;16.17;7.80;;;9.30;99.90;;;;;;6128009;23;20438;-80
2021/03/11 06:08:49;;;;;;;12.40;7.10;;;9.40;99.90;;;;;;6127068;23;20454;-80
2021/03/11 06:11:17;;;;;;;12.73;6.30;;;9.30;99.90;;;;;;6137520;23;20415;-81
2021/03/11 06:13:45;;;;;;;13.30;7.37;;;9.40;99.90;;;;;;6128106;23;20402;-81
2021/03/11 06:16:20;;;;;;;12.43;5.87;;;9.40;99.90;;;;;;6128025;23;20406;-81
2021/03/11 06:18:49;;;;;;;16.10;8.60;;;9.50;99.90;;;;;;6127797;23;20742;-81
2021/03/11 06:21:16;;;;;;;11.90;6.17;;;9.40;99.90;;;;;;6127669;23;20445;-81
2021/03/11 06:23:42;;;;;;;12.33;7.17;;;9.50;99.90;;;;;;6126352;23;20875;-82
2021/03/11 06:26:11;;;;;;;11.60;5.73;;;9.60;99.90;;;;;;6127577;23;20479;-81
2021/03/11 06:28:52;;;;;;;13.30;7.00;;;9.60;99.90;;;;;;6127837;23;20497;-79
2021/03/11 06:31:18;;;;;;;14.20;6.53;;;9.60;99.90;;;;;;6127010;23;20449;-79
2021/03/11 06:33:45;;;;;;;13.00;6.50;;;9.70;99.90;;;;;;6127150;23;20486;-80
2021/03/11 06:36:12;;;;;;;16.83;6.90;;;9.70;99.90;;;;;;6136779;23;20704;-80
2021/03/11 06:38:38;;;;;;;15.77;6.77;;;9.70;99.90;;;;;;6125613;23;20466;-79
2021/03/11 06:41:05;;;;;;;12.47;6.27;;;9.80;99.90;;;;;;6136761;23;20891;-79
2021/03/11 06:43:31;;;;;;;13.03;7.53;;;9.70;99.90;;;;;;6127471;23;20950;-79
2021/03/11 06:46:08;;;;;;;13.90;7.00;;;9.70;99.90;;;;;;6127645;23;20490;-79
2021/03/11 06:48:35;;;;;;;14.37;5.97;;;9.80;99.90;;;;;;6127651;23;20801;-79
2021/03/11 06:51:03;;;;;;;11.83;5.63;;;9.80;99.90;;;;;;6127037;23;20929;-79
2021/03/11 06:53:30;;;;;;;16.30;7.33;;;9.90;99.90;;;;;;6135329;23;20427;-79
2021/03/11 06:56:18;;;;;;;13.10;5.47;;;9.90;99.90;;;;;;6127002;23;20434;-80
2021/03/11 06:58:55;;;;;;;17.50;5.80;;;10.20;99.90;;;;;;6127097;23;20522;-79
2021/03/11 07:01:23;;;;;;;14.50;5.93;;;10.20;99.90;;;;;;6127168;23;20872;-80
2021/03/11 07:03:50;;;;;;;11.40;4.70;;;10.40;99.90;;;;;;6127793;23;20403;-80
2021/03/11 07:06:26;;;;;;;18.37;7.23;;;10.30;99.90;;;;;;6127598;23;20458;-79
2021/03/11 07:08:53;;;;;;;16.67;5.50;;;10.30;99.90;;;;;;6127289;23;20489;-79
2021/03/11 07:11:20;;;;;;;16.20;5.80;;;10.30;99.90;;;;;;6127623;23;20431;-79
2021/03/11 07:13:48;;;;;;;21.33;6.23;;;10.50;99.90;;;;;;6137152;23;20899;-79
2021/03/11 07:16:15;;;;;;;14.13;4.70;;;10.40;99.90;;;;;;6127468;23;20878;-79
2021/03/11 07:18:43;;;;;;;15.07;6.07;;;10.40;99.90;;;;;;6127175;23;20455;-80
2021/03/11 07:21:10;;;;;;;11.87;4.23;;;10.50;99.90;;;;;;6127131;23;20725;-81
2021/03/11 07:23:47;;;;;;;19.27;4.40;;;10.50;99.90;;;;;;6125552;23;20453;-80
2021/03/11 07:26:15;;;;;;;15.10;5.00;;;10.70;99.90;;;;;;6127190;23;20931;-81
2021/03/11 07:28:41;;;;;;;13.10;4.60;;;10.60;99.90;;;;;;6127306;23;20458;-81
2021/03/11 07:31:08;;;;;;;12.97;5.00;;;10.70;99.90;;;;;;6136496;23;20413;-82
2021/03/11 07:33:36;;;;;;;14.43;4.47;;;10.60;99.90;;;;;;6136893;23;20490;-81
2021/03/11 07:36:05;;;;;;;16.20;5.80;;;10.80;99.90;;;;;;6136769;23;20422;-81
2021/03/11 07:38:34;;;;;;;15.00;5.00;;;10.80;99.90;;;;;;6125798;23;20469;-80
2021/03/11 07:41:02;;;;;;;13.87;4.90;;;10.90;99.90;;;;;;6127186;23;20470;-81
2021/03/11 07:43:31;;;;;;;19.10;4.97;;;11.20;99.90;;;;;;6127166;23;20403;-80
2021/03/11 07:46:02;;;;;;;12.07;4.13;;;11.30;99.90;;;;;;6136449;23;20470;-81
2021/03/11 07:48:28;;;;;;;14.63;4.47;;;11.60;99.90;;;;;;6126782;23;20490;-80
2021/03/11 07:50:56;;;;;;;14.77;4.67;;;11.70;99.90;;;;;;6127206;23;20767;-81
2021/03/11 07:53:31;;;;;;;15.33;4.67;;;11.80;99.90;;;;;;6125349;23;20463;-81
2021/03/11 07:55:59;;;;;;;13.57;4.20;;;11.90;99.00;;;;;;6127016;23;20499;-81
2021/03/11 07:58:25;;;;;;;16.23;4.00;;;12.00;98.50;;;;;;6126890;23;20797;-81
2021/03/11 08:00:52;;;;;;;15.30;4.10;;;12.10;96.70;;;;;;6127120;23;20431;-82
2021/03/11 08:03:24;;;;;;;18.20;4.50;;;12.10;95.00;;;;;;6126531;23;20482;-81
2021/03/11 08:05:50;;;;;;;18.97;4.73;;;12.10;93.90;;;;;;6127055;23;20453;-81
2021/03/11 08:08:19;;;;;;;13.87;5.83;;;12.20;94.00;;;;;;6125060;23;20407;-81
2021/03/11 08:10:49;;;;;;;15.57;4.60;;;12.10;93.10;;;;;;6121832;23;20403;-81
2021/03/11 08:13:35;;;;;;;14.23;3.50;;;12.10;91.80;;;;;;6124102;23;20883;-82
2021/03/11 08:16:17;;;;;;;15.63;4.43;;;12.10;91.10;;;;;;6125080;23;20407;-81
2021/03/11 08:18:45;;;;;;;14.63;3.77;;;12.00;91.80;;;;;;6124086;23;20524;-80
2021/03/11 08:21:43;;;;;;;14.57;3.80;;;11.90;95.70;;;;;;6125164;23;20766;-80
2021/03/11 08:24:46;;;;;;;17.13;3.40;;;11.80;94.30;;;;;;6125014;23;20407;-80
2021/03/11 08:27:43;;;;;;;13.10;3.40;;;11.70;99.90;;;;;;6124924;23;20453;-79
2021/03/11 08:30:52;;;;;;;13.80;6.00;;;11.30;99.90;;;;;;6135203;23;20411;-80
2021/03/11 08:33:55;;;;;;;26.03;23.43;;;10.40;99.90;;;;;;6136633;23;20442;-79
2021/03/11 08:36:46;;;;;;;42.87;40.03;;;9.50;99.90;;;;;;6126677;23;20733;-79
2021/03/11 08:39:37;;;;;;;75.00;71.23;;;9.50;99.90;;;;;;6126105;23;20509;-78
2021/03/11 08:42:46;;;;;;;98.20;93.93;;;9.30;99.90;;;;;;6126592;23;20766;-80
2021/03/11 08:45:29;;;;;;;50.87;47.70;;;9.30;99.90;;;;;;6126344;23;20453;-81
2021/03/11 08:48:11;;;;;;;109.83;105.03;;;9.10;99.90;;;;;;6125758;23;20421;-80
2021/03/11 08:50:37;;;;;;;76.63;73.17;;;9.10;99.90;;;;;;6126282;23;20399;-80
2021/03/11 08:53:04;;;;;;;143.97;138.43;;;9.00;99.90;;;;;;6124504;23;20430;-81
2021/03/11 08:55:32;;;;;;;116.83;111.37;;;8.90;99.90;;;;;;6126465;23;20454;-80
2021/03/11 08:57:59;;;;;;;117.90;112.63;;;8.80;99.90;;;;;;6126611;23;20791;-81
2021/03/11 09:00:55;;;;;;;156.47;150.30;;;8.80;99.90;;;;;;6126460;23;20466;-81
2021/03/11 09:03:39;;;;;;;143.20;137.23;;;8.70;99.90;;;;;;6126135;23;20935;-82
2021/03/11 09:06:06;;;;;;;148.37;142.37;;;8.70;99.90;;;;;;6126703;23;20400;-81
2021/03/11 09:08:36;;;;;;;178.57;171.30;;;8.60;99.90;;;;;;6124947;23;20441;-81
2021/03/11 09:11:10;;;;;;;149.17;142.83;;;8.60;99.90;;;;;;6126572;23;20399;-81
2021/03/11 09:13:40;;;;;;;101.00;96.30;;;8.60;99.90;;;;;;6126418;23;20399;-81
2021/03/11 09:16:08;;;;;;;159.97;153.20;;;8.60;99.90;;;;;;6126203;23;20403;-81
2021/03/11 09:18:35;;;;;;;182.37;174.37;;;8.60;99.90;;;;;;6126503;23;20426;-81
2021/03/11 09:21:03;;;;;;;229.00;220.70;;;8.60;99.90;;;;;;6126107;23;20937;-82
2021/03/11 09:23:37;;;;;;;200.97;192.67;;;8.80;99.90;;;;;;6126233;23;20486;-82
2021/03/11 09:26:05;;;;;;;221.00;209.23;;;8.80;99.90;;;;;;6128056;23;20812;-82
2021/03/11 09:28:33;;;;;;;121.70;115.27;;;8.80;99.90;;;;;;6128405;23;20403;-82
2021/03/11 09:31:02;;;;;;;125.90;119.37;;;8.80;99.90;;;;;;6138325;23;20494;-83
2021/03/11 09:33:50;;;;;;;125.57;120.17;;;8.60;99.90;;;;;;6138191;23;20411;-82
2021/03/11 09:36:17;;;;;;;100.23;95.53;;;8.70;99.90;;;;;;6138203;23;20414;-83
2021/03/11 09:38:46;;;;;;;125.10;118.93;;;8.70;99.90;;;;;;6126730;23;20431;-82
2021/03/11 09:41:13;;;;;;;62.87;58.83;;;8.80;99.90;;;;;;6128315;23;20407;-82
2021/03/11 09:43:43;;;;;;;53.37;48.97;;;8.80;99.90;;;;;;6128361;23;20712;-82
2021/03/11 09:46:15;;;;;;;37.13;33.73;;;8.70;99.90;;;;;;6128451;23;20403;-82
2021/03/11 09:48:44;;;;;;;64.30;60.03;;;8.80;99.90;;;;;;6128289;23;20775;-82
2021/03/11 09:51:16;;;;;;;28.33;17.77;;;9.50;99.90;;;;;;6128211;23;20403;-82
2021/03/11 09:53:44;;;;;;;26.37;12.97;;;9.80;99.90;;;;;;6136166;23;20395;-82
2021/03/11 09:56:13;;;;;;;17.93;4.00;;;10.00;99.90;;;;;;6128208;23;20886;-81
2021/03/11 09:58:47;;;;;;;24.23;5.70;;;9.80;99.90;;;;;;6128079;23;20513;-81
2021/03/11 10:01:30;;;;;;;24.43;5.33;;;9.90;99.90;;;;;;6127771;23;20481;-81
2021/03/11 10:04:01;;;;;;;29.10;18.37;;;10.10;99.90;;;;;;6127887;23;20434;-82
2021/03/11 10:06:31;;;;;;;29.57;4.30;;;10.20;99.90;;;;;;6127814;23;20399;-81
2021/03/11 10:08:59;;;;;;;19.87;3.70;;;10.50;99.90;;;;;;6126975;23;20403;-82
2021/03/11 10:11:33;;;;;;;17.57;4.23;;;10.90;99.90;;;;;;6127743;23;20458;-82
2021/03/11 10:14:02;;;;;;;25.27;4.30;;;11.10;99.90;;;;;;6127575;23;20399;-83
2021/03/11 10:16:43;;;;;;;26.53;4.13;;;11.40;99.90;;;;;;6127820;23;20425;-82
2021/03/11 10:19:12;;;;;;;23.23;5.87;;;12.10;99.90;;;;;;6127837;23;20802;-84
2021/03/11 10:21:51;;;;;;;19.70;3.80;;;12.40;99.90;;;;;;6126581;23;20407;-83
2021/03/11 10:24:42;;;;;;;22.23;4.60;;;12.90;99.90;;;;;;6127530;23;20392;-84
2021/03/11 10:27:22;;;;;;;20.63;3.40;;;13.20;99.90;;;;;;6127472;23;20473;-83
2021/03/11 10:30:00;;;;;;;26.17;10.87;;;13.40;99.90;;;;;;6127839;23;20734;-83
2021/03/11 10:32:27;;;;;;;21.70;7.33;;;13.60;99.90;;;;;;6127705;23;20407;-84
2021/03/11 10:34:57;;;;;;;20.43;3.27;;;13.90;99.90;;;;;;6127690;23;20461;-83
2021/03/11 10:37:35;;;;;;;63.87;56.83;;;13.90;91.10;;;;;;6126411;23;20512;-83
2021/03/11 10:40:26;;;;;;;37.60;25.07;;;13.80;87.50;;;;;;6127702;23;20487;-84
2021/03/11 10:42:54;;;;;;;20.53;3.80;;;14.00;84.50;;;;;;6127809;23;20888;-83
2021/03/11 10:45:22;;;;;;;21.10;3.67;;;14.30;92.70;;;;;;6127310;23;20403;-83
2021/03/11 10:48:00;;;;;;;18.60;3.40;;;14.60;94.90;;;;;;6127747;23;20841;-84
2021/03/11 10:50:58;;;;;;;;;;;;;;;;;;;;;
2021/03/11 10:53:42;;;;;;;20.33;3.83;;;14.90;61.70;;;;;;6136098;23;20520;-84
2021/03/11 10:56:21;;;;;;;21.40;3.50;;;14.60;45.50;;;;;;6127243;23;20985;-83
2021/03/11 10:59:21;;;;;;;34.60;25.60;;;14.90;34.90;;;;;;6127056;23;20436;-85
2021/03/11 11:01:48;;;;;;;22.10;9.80;;;14.70;29.00;;;;;;6037836;23;20418;-82
2021/03/11 11:04:19;;;;;;;25.27;14.43;;;14.80;26.50;;;;;;6121646;23;20801;-83
2021/03/11 11:06:56;;;;;;;;;;;;;;;;;;;;;
2021/03/11 11:09:50;;;;;;;37.60;24.17;;;14.70;21.80;;;;;;6126789;23;20416;-84
2021/03/11 11:12:24;;;;;;;30.97;25.43;;;14.20;19.10;;;;;;6046251;23;20417;-84
2021/03/11 11:15:05;;;;;;;62.73;57.50;;;14.30;20.50;;;;;;6109872;23;20492;-84
2021/03/11 11:20:33;;;;;;;25.77;5.60;;;15.10;25.40;;;;;;6119532;23;20453;-81
2021/03/11 11:23:09;;;;;;;28.73;19.60;;;15.30;11.40;;;;;;6125582;23;20427;-83
2021/03/11 11:25:38;;;;;;;24.30;6.13;;;15.20;10.70;;;;;;6127049;23;20470;-82
2021/03/11 11:28:20;;;;;;;30.87;12.13;;;15.40;14.50;;;;;;6137239;23;20406;-83
2021/03/11 11:30:56;;;;;;;26.80;3.77;;;15.20;11.40;;;;;;6136763;23;20407;-82
2021/03/11 11:33:22;;;;;;;24.43;3.60;;;14.80;10.00;;;;;;6136684;23;20415;-82
2021/03/11 11:35:51;;;;;;;34.87;28.07;;;15.10;13.10;;;;;;6127293;23;20503;-82
2021/03/11 11:38:26;;;;;;;36.30;27.43;;;14.70;12.80;;;;;;6135774;23;20407;-83
2021/03/11 11:41:15;;;;;;;33.33;5.87;;;14.90;6.80;;;;;;6127269;23;20410;-82
2021/03/11 11:43:47;;;;;;;33.83;23.30;;;15.10;14.70;;;;;;6136544;23;20468;-83
2021/03/11 11:46:15;;;;;;;28.27;7.30;;;15.20;6.10;;;;;;6126708;23;20710;-83
2021/03/11 11:48:43;;;;;;;36.37;32.53;;;15.30;8.00;;;;;;6136807;23;20415;-82
2021/03/11 11:51:37;;;;;;;31.13;15.03;;;15.00;8.70;;;;;;6085481;23;21036;-82
2021/03/11 11:54:07;;;;;;;35.77;21.10;;;14.80;12.90;;;;;;6125011;23;20413;-81
2021/03/11 11:57:07;;;;;;;30.63;11.27;;;14.60;11.70;;;;;;6127084;23;20455;-82
2021/03/11 11:59:42;;;;;;;36.43;22.73;;;14.60;13.60;;;;;;6048224;23;20437;-82
2021/03/11 12:02:22;;;;;;;;;;;;;;;;;;;;;
2021/03/11 12:05:12;;;;;;;32.17;13.47;;;14.70;14.70;;;;;;6137842;23;20873;-82
2021/03/11 12:07:45;;;;;;;30.07;6.10;;;14.40;14.20;;;;;;6135631;23;20763;-82
2021/03/11 12:10:35;;;;;;;25.00;4.90;;;14.50;13.90;;;;;;6136696;23;20729;-82
2021/03/11 12:13:13;;;;;;;;;;;;;;;;;;;;;
2021/03/11 12:15:55;;;;;;;27.90;7.73;;;15.10;8.70;;;;;;6133093;23;20420;-82
2021/03/11 12:18:23;;;;;;;27.93;9.40;;;14.80;12.60;;;;;;6125177;23;20423;-82
2021/03/11 12:20:50;;;;;;;32.73;8.67;;;14.30;14.10;;;;;;6126298;23;20437;-81
2021/03/11 12:23:17;;;;;;;23.00;6.10;;;14.50;15.80;;;;;;6134691;23;20944;-80
2021/03/11 12:25:43;;;;;;;51.50;46.67;;;14.80;14.20;;;;;;6126326;23;20496;-80
2021/03/11 12:28:11;;;;;;;23.33;6.00;;;14.60;8.30;;;;;;6136249;23;20444;-81
2021/03/11 12:30:38;;;;;;;27.57;11.20;;;14.90;7.30;;;;;;6136037;23;20411;-81
2021/03/11 12:33:05;;;;;;;31.90;19.27;;;15.00;5.20;;;;;;6126750;23;20406;-81
2021/03/11 12:35:32;;;;;;;44.63;29.20;;;15.40;4.00;;;;;;6136507;23;20437;-81
2021/03/11 12:37:59;;;;;;;20.27;6.47;;;15.30;2.70;;;;;;6124803;23;20915;-81
2021/03/11 12:40:26;;;;;;;54.67;49.23;;;15.40;3.60;;;;;;6126515;23;20513;-82
2021/03/11 12:42:52;;;;;;;22.40;3.73;;;15.20;2.10;;;;;;6126617;23;20774;-81
2021/03/11 12:45:22;;;;;;;20.10;3.30;;;15.60;4.70;;;;;;6126450;23;20405;-81
2021/03/11 12:47:49;;;;;;;23.80;9.40;;;15.70;7.30;;;;;;6126225;23;20451;-82
2021/03/11 12:50:18;;;;;;;21.73;6.23;;;15.80;3.90;;;;;;6126239;23;20889;-81
2021/03/11 12:52:44;;;;;;;37.87;29.27;;;15.70;1.40;;;;;;6124914;23;20780;-81
2021/03/11 12:55:12;;;;;;;34.23;22.03;;;15.50;1.30;;;;;;6136047;23;20500;-82
2021/03/11 12:57:39;;;;;;;33.23;27.47;;;15.40;1.20;;;;;;6126512;23;20413;-82
2021/03/11 13:00:09;;;;;;;24.13;4.17;;;15.40;3.00;;;;;;6126411;23;20437;-82
2021/03/11 13:02:35;;;;;;;27.70;13.47;;;15.90;4.70;;;;;;6126148;23;20895;-82
2021/03/11 13:05:04;;;;;;;22.37;6.40;;;16.00;1.00;;;;;;6126200;23;20407;-83